Kangley, Illinois
Current Conditions -  °F | °C
As of 5:15 AM on Thursday 18 Dec 2014 (Local Time) from KPNT Reporting Station
Clear Clear  
Wind Chill: 11°   Ceiling: Unl
Heat Index: 18°   Visibility: 10mi
Dew Point: 17°   Wind: 5mph
Humidity: 94%   Direction: 350°N
Pressure: 30.28"   Gusts: NA
Location:  41.1182°N, 88.8294°W
Report Text: KPNT 181115Z AUTO 35004KT 10SM CLR M08/M08 A3028 RMK AO2 T10771085
Loading
Personal Weather Stations






























Interactive Weather Map New forecast layout! Learn more

10-Day Weather Forecast

Advertisements
Track Severe Weather on mobile